Time;durP1;ratioP1;P1;durP2;ratioP2;P2;SDS_P1;SDS_P2;PMS_P1;PMS_P2;Temp;Humidity;BMP_temperature;BMP_pressure;BME280_temperature;BME280_humidity;BME280_pressure;Samples;Min_cycle;Max_cycle;Signal;HPM_P1;HPM_P2
2023/04/04 00:00:51;;;;;;;5.93;2.43;;;3.00;97.30;;;;;;4904013;29;20576;-79
2023/04/04 00:03:19;;;;;;;4.60;2.60;;;2.90;97.30;;;;;;4901188;29;20970;-76
2023/04/04 00:05:48;;;;;;;4.50;2.40;;;2.90;97.30;;;;;;4902295;29;20622;-76
2023/04/04 00:08:16;;;;;;;4.97;2.80;;;2.80;97.30;;;;;;4902201;29;20442;-76
2023/04/04 00:10:44;;;;;;;4.80;2.60;;;2.80;97.40;;;;;;4902427;29;20959;-77
2023/04/04 00:13:14;;;;;;;4.90;2.50;;;2.70;97.40;;;;;;4902211;29;20472;-76
2023/04/04 00:15:42;;;;;;;4.77;3.00;;;2.80;97.40;;;;;;4900750;29;20802;-76
2023/04/04 00:18:10;;;;;;;5.63;2.90;;;2.70;97.40;;;;;;4901876;29;20534;-76
2023/04/04 00:20:38;;;;;;;6.20;2.53;;;2.70;97.50;;;;;;4900677;29;20828;-76
2023/04/04 00:23:09;;;;;;;5.77;3.17;;;2.70;97.50;;;;;;4899300;29;20583;-76
2023/04/04 00:25:38;;;;;;;5.83;2.80;;;2.60;97.50;;;;;;4897448;29;20453;-76
2023/04/04 00:28:06;;;;;;;5.00;2.77;;;2.60;97.50;;;;;;4897348;29;20453;-77
2023/04/04 00:30:36;;;;;;;5.77;2.90;;;2.50;97.50;;;;;;4897471;29;20536;-76
2023/04/04 00:33:05;;;;;;;7.40;3.63;;;2.50;97.60;;;;;;4898721;29;20468;-76
2023/04/04 00:35:33;;;;;;;6.77;2.90;;;2.50;97.60;;;;;;4899450;29;20528;-75
2023/04/04 00:38:01;;;;;;;7.90;4.30;;;2.50;97.60;;;;;;4899031;29;20470;-76
2023/04/04 00:40:30;;;;;;;6.70;3.00;;;2.40;97.60;;;;;;4898817;29;20516;-77
2023/04/04 00:42:59;;;;;;;5.70;2.80;;;2.40;97.70;;;;;;4897672;29;20453;-76
2023/04/04 00:45:28;;;;;;;5.27;3.00;;;2.40;97.70;;;;;;4898287;29;20865;-76
2023/04/04 00:47:59;;;;;;;9.20;3.17;;;2.30;97.70;;;;;;4897158;29;20464;-76
2023/04/04 00:50:27;;;;;;;6.50;3.27;;;2.30;97.70;;;;;;4896946;29;20463;-75
2023/04/04 00:52:56;;;;;;;6.80;3.00;;;2.30;97.70;;;;;;4897026;29;20492;-76
2023/04/04 00:55:24;;;;;;;5.53;3.23;;;2.20;97.70;;;;;;4896982;29;20490;-76
2023/04/04 00:57:53;;;;;;;5.60;3.13;;;2.20;97.70;;;;;;4896891;29;20952;-75
2023/04/04 01:00:21;;;;;;;7.57;3.83;;;2.10;97.70;;;;;;4897067;29;20455;-76
2023/04/04 01:02:50;;;;;;;6.50;3.10;;;2.10;97.70;;;;;;4896945;29;20486;-76
2023/04/04 01:05:20;;;;;;;7.57;3.17;;;2.10;97.70;;;;;;4896471;29;20977;-76
2023/04/04 01:07:48;;;;;;;5.80;3.00;;;2.00;97.80;;;;;;4896626;29;20896;-76
2023/04/04 01:10:17;;;;;;;5.13;3.00;;;2.00;97.80;;;;;;4896884;29;20457;-76
2023/04/04 01:12:45;;;;;;;5.63;2.60;;;1.90;97.80;;;;;;4896574;29;20477;-75
2023/04/04 01:15:14;;;;;;;6.90;3.17;;;1.90;97.80;;;;;;4896698;29;20550;-75
2023/04/04 01:17:43;;;;;;;6.00;3.50;;;1.90;97.80;;;;;;4896685;29;20810;-75
2023/04/04 01:20:15;;;;;;;4.93;2.90;;;1.80;97.80;;;;;;4897111;29;20848;-75
2023/04/04 01:22:52;;;;;;;6.30;3.27;;;1.80;97.80;;;;;;4896694;29;20877;-75
2023/04/04 01:25:29;;;;;;;8.77;3.63;;;1.80;97.90;;;;;;4896619;29;20446;-75
2023/04/04 01:27:59;;;;;;;6.07;3.30;;;1.70;97.80;;;;;;4898025;29;20469;-76
2023/04/04 01:30:34;;;;;;;7.17;3.40;;;1.70;97.90;;;;;;4896392;29;21040;-76
2023/04/04 01:33:09;;;;;;;5.53;3.30;;;1.70;97.90;;;;;;4896379;29;20477;-75
2023/04/04 01:35:55;;;;;;;5.13;3.10;;;1.60;97.90;;;;;;4896385;29;20447;-75
2023/04/04 01:38:28;;;;;;;5.17;2.90;;;1.60;98.00;;;;;;4896454;29;20464;-76
2023/04/04 01:41:02;;;;;;;7.73;3.53;;;1.50;98.00;;;;;;4896454;29;20473;-76
2023/04/04 01:43:33;;;;;;;6.70;3.37;;;1.50;98.00;;;;;;4896449;29;20491;-76
2023/04/04 01:46:03;;;;;;;5.10;3.17;;;1.50;98.00;;;;;;4896394;29;20465;-76
2023/04/04 01:48:31;;;;;;;5.43;3.10;;;1.40;98.00;;;;;;4897744;29;20508;-76
2023/04/04 01:51:05;;;;;;;6.33;3.60;;;1.40;98.00;;;;;;4896453;29;20529;-76
2023/04/04 01:53:33;;;;;;;8.57;3.00;;;1.40;98.10;;;;;;4896296;29;20471;-76
2023/04/04 01:56:03;;;;;;;5.80;3.27;;;1.30;98.10;;;;;;4896234;29;20459;-75
2023/04/04 01:58:34;;;;;;;6.43;3.80;;;1.30;98.10;;;;;;4896245;29;20457;-75
2023/04/04 02:01:02;;;;;;;4.90;2.73;;;1.30;98.10;;;;;;4896308;29;20572;-76
2023/04/04 02:03:30;;;;;;;5.70;2.73;;;1.30;98.20;;;;;;4896251;29;20975;-75
2023/04/04 02:05:59;;;;;;;6.10;3.63;;;1.30;98.20;;;;;;4896156;29;20949;-76
2023/04/04 02:08:27;;;;;;;7.03;3.67;;;1.30;98.30;;;;;;4896564;29;20530;-76
2023/04/04 02:10:58;;;;;;;8.77;3.63;;;1.20;98.30;;;;;;4896119;29;20521;-75
2023/04/04 02:13:28;;;;;;;8.00;3.27;;;1.30;98.40;;;;;;4895925;29;20457;-76
2023/04/04 02:15:58;;;;;;;5.40;2.80;;;1.20;98.30;;;;;;4896504;29;20460;-76
2023/04/04 02:18:27;;;;;;;7.50;3.50;;;1.20;98.40;;;;;;4898802;29;20513;-76
2023/04/04 02:20:56;;;;;;;5.53;3.20;;;1.20;98.40;;;;;;4899577;29;20466;-75
2023/04/04 02:23:24;;;;;;;4.60;3.10;;;1.20;98.70;;;;;;4899567;29;20457;-75
2023/04/04 02:25:53;;;;;;;6.03;2.67;;;1.20;98.40;;;;;;4899372;29;20502;-75
2023/04/04 02:28:21;;;;;;;5.40;3.40;;;1.20;98.40;;;;;;4901185;29;20451;-75
2023/04/04 02:30:51;;;;;;;7.63;3.40;;;1.10;98.40;;;;;;4899338;29;20475;-75
2023/04/04 02:33:19;;;;;;;5.17;2.90;;;1.10;98.40;;;;;;4899314;29;20462;-75
2023/04/04 02:35:48;;;;;;;5.90;2.90;;;1.10;98.40;;;;;;4899265;29;20509;-76
2023/04/04 02:38:17;;;;;;;6.20;3.03;;;1.10;98.40;;;;;;4900564;29;20466;-77
2023/04/04 02:40:46;;;;;;;7.93;3.10;;;1.10;98.40;;;;;;4899169;29;20489;-77
2023/04/04 02:43:15;;;;;;;4.93;3.10;;;1.00;98.40;;;;;;4898981;29;20858;-76
2023/04/04 02:45:44;;;;;;;6.30;3.07;;;1.00;98.50;;;;;;4900211;29;20458;-75
2023/04/04 02:48:22;;;;;;;4.90;2.50;;;1.00;98.50;;;;;;4899095;29;20446;-75
2023/04/04 02:50:52;;;;;;;7.20;3.17;;;0.90;98.50;;;;;;4899030;29;20483;-75
2023/04/04 02:53:21;;;;;;;5.70;3.07;;;0.90;98.80;;;;;;4898842;29;20455;-75
2023/04/04 02:55:52;;;;;;;4.83;3.10;;;0.90;98.60;;;;;;4898838;29;20468;-75
2023/04/04 02:58:21;;;;;;;5.67;2.90;;;0.90;98.60;;;;;;4898944;29;20455;-75
2023/04/04 03:00:54;;;;;;;5.80;2.83;;;0.80;98.60;;;;;;4898849;29;20481;-75
2023/04/04 03:03:28;;;;;;;7.20;2.90;;;0.80;98.60;;;;;;4898964;29;20996;-75
2023/04/04 03:05:58;;;;;;;4.83;2.73;;;0.80;98.60;;;;;;4898755;29;20454;-75
2023/04/04 03:08:28;;;;;;;6.57;2.83;;;0.80;98.70;;;;;;4898753;29;20939;-75
2023/04/04 03:10:58;;;;;;;6.23;3.00;;;0.80;98.70;;;;;;4898727;29;20482;-75
2023/04/04 03:13:27;;;;;;;5.97;2.90;;;0.80;98.70;;;;;;4898530;29;20455;-75
2023/04/04 03:16:01;;;;;;;5.60;3.00;;;0.80;98.70;;;;;;4898534;29;20476;-75
2023/04/04 03:18:34;;;;;;;6.10;3.40;;;0.80;98.70;;;;;;4898950;29;20458;-75
2023/04/04 03:21:06;;;;;;;25.03;16.53;;;0.70;98.70;;;;;;4899004;29;20894;-75
2023/04/04 03:23:35;;;;;;;44.90;28.90;;;0.70;98.70;;;;;;4898436;29;20795;-75
2023/04/04 03:26:04;;;;;;;48.53;31.20;;;0.70;98.80;;;;;;4898515;29;20828;-75
2023/04/04 03:28:32;;;;;;;23.13;16.30;;;0.70;98.80;;;;;;4897926;29;20454;-75
2023/04/04 03:31:06;;;;;;;15.27;10.57;;;0.70;98.80;;;;;;4898100;29;20569;-75
2023/04/04 03:33:41;;;;;;;10.53;5.27;;;0.70;98.90;;;;;;4898252;29;20533;-75
2023/04/04 03:36:11;;;;;;;7.90;4.30;;;0.70;98.90;;;;;;4898339;29;20481;-75
2023/04/04 03:38:40;;;;;;;7.80;3.90;;;0.60;98.90;;;;;;4898216;29;20926;-75
2023/04/04 03:41:10;;;;;;;5.80;3.70;;;0.60;98.90;;;;;;4898938;29;20501;-75
2023/04/04 03:43:38;;;;;;;6.80;3.80;;;0.60;99.00;;;;;;4899878;29;20542;-75
2023/04/04 03:46:07;;;;;;;5.47;3.50;;;0.60;99.00;;;;;;4899898;29;20941;-75
2023/04/04 03:48:36;;;;;;;4.83;3.27;;;0.60;99.00;;;;;;4898670;29;20457;-75
2023/04/04 03:51:11;;;;;;;5.97;2.97;;;0.60;99.10;;;;;;4897990;29;20511;-75
2023/04/04 03:53:39;;;;;;;5.73;2.87;;;0.60;99.10;;;;;;4897856;29;20506;-75
2023/04/04 03:56:08;;;;;;;6.90;3.67;;;0.60;99.10;;;;;;4897687;29;20941;-75
2023/04/04 03:58:36;;;;;;;8.23;3.90;;;0.50;99.10;;;;;;4897703;29;20455;-75
2023/04/04 04:01:04;;;;;;;6.40;3.50;;;0.60;99.10;;;;;;4897656;29;20981;-75
2023/04/04 04:03:32;;;;;;;7.50;3.20;;;0.50;99.10;;;;;;4897905;29;20535;-75
2023/04/04 04:06:01;;;;;;;5.17;3.00;;;0.50;99.10;;;;;;4897581;29;20521;-75
2023/04/04 04:08:31;;;;;;;6.47;3.77;;;0.50;99.10;;;;;;4897888;29;20459;-75
2023/04/04 04:11:04;;;;;;;5.17;3.60;;;0.50;99.20;;;;;;4897520;29;20519;-75
2023/04/04 04:13:33;;;;;;;6.43;3.53;;;0.50;99.20;;;;;;4898767;29;20426;-75
2023/04/04 04:16:02;;;;;;;7.33;3.67;;;0.40;99.20;;;;;;4898554;29;20476;-75
2023/04/04 04:18:31;;;;;;;5.17;3.00;;;0.40;99.50;;;;;;4898155;29;20495;-75
2023/04/04 04:21:02;;;;;;;4.60;3.03;;;0.40;99.20;;;;;;4897181;29;20478;-75
2023/04/04 04:23:33;;;;;;;8.23;3.43;;;0.40;99.30;;;;;;4897316;29;20452;-75
2023/04/04 04:26:02;;;;;;;7.43;3.63;;;0.30;99.20;;;;;;4897236;29;20454;-75
2023/04/04 04:28:31;;;;;;;5.40;3.30;;;0.30;99.20;;;;;;4897240;29;20453;-75
2023/04/04 04:31:07;;;;;;;6.33;3.67;;;0.30;99.30;;;;;;4897263;29;20564;-75
2023/04/04 04:33:42;;;;;;;9.03;3.70;;;0.30;99.30;;;;;;4897195;29;20440;-75
2023/04/04 04:36:11;;;;;;;5.03;3.20;;;0.30;99.30;;;;;;4897001;29;20473;-75
2023/04/04 04:38:50;;;;;;;6.67;4.63;;;0.30;99.30;;;;;;4896991;29;20441;-75
2023/04/04 04:41:18;;;;;;;9.23;3.97;;;0.30;99.40;;;;;;4896282;29;20473;-75
2023/04/04 04:43:51;;;;;;;7.40;3.70;;;0.30;99.40;;;;;;4896987;29;20567;-75
2023/04/04 04:46:20;;;;;;;8.23;4.23;;;0.30;99.40;;;;;;4896959;29;20460;-75
2023/04/04 04:48:49;;;;;;;7.73;3.93;;;0.30;99.40;;;;;;4896933;29;20448;-75
2023/04/04 04:51:24;;;;;;;11.83;4.70;;;0.30;99.50;;;;;;4897793;29;20472;-75
2023/04/04 04:53:55;;;;;;;6.63;3.73;;;0.30;99.50;;;;;;4896878;29;20950;-75
2023/04/04 04:56:26;;;;;;;6.53;4.20;;;0.30;99.50;;;;;;4897045;29;20481;-75
2023/04/04 04:58:58;;;;;;;6.37;4.13;;;0.20;99.60;;;;;;4896868;29;20489;-75
2023/04/04 05:01:27;;;;;;;6.43;3.80;;;0.20;99.60;;;;;;4896659;29;20476;-75
2023/04/04 05:03:57;;;;;;;9.43;4.00;;;0.20;99.70;;;;;;4896706;29;20923;-75
2023/04/04 05:06:34;;;;;;;6.90;4.33;;;0.20;99.70;;;;;;4896822;29;20491;-75
2023/04/04 05:09:06;;;;;;;8.23;4.90;;;0.20;99.70;;;;;;4896937;29;20976;-75
2023/04/04 05:11:37;;;;;;;7.17;3.90;;;0.20;99.80;;;;;;4896637;29;20472;-75
2023/04/04 05:14:07;;;;;;;7.40;4.23;;;0.20;99.80;;;;;;4897028;29;20446;-76
2023/04/04 05:16:41;;;;;;;7.07;5.10;;;0.20;99.80;;;;;;4896582;29;20506;-76
2023/04/04 05:19:09;;;;;;;6.87;4.07;;;0.20;99.90;;;;;;4896440;29;20873;-76
2023/04/04 05:21:44;;;;;;;8.93;4.43;;;0.20;99.90;;;;;;4896731;29;21040;-76
2023/04/04 05:24:22;;;;;;;10.50;5.63;;;0.20;99.90;;;;;;4896701;29;20465;-76
2023/04/04 05:26:50;;;;;;;7.37;4.53;;;0.20;99.90;;;;;;4896505;29;20460;-77
2023/04/04 05:29:20;;;;;;;7.57;5.13;;;0.20;99.90;;;;;;4896866;29;21036;-77
2023/04/04 05:31:49;;;;;;;8.20;4.80;;;0.10;99.90;;;;;;4896586;29;20472;-76
2023/04/04 05:34:20;;;;;;;5.90;4.77;;;0.20;99.90;;;;;;4896708;29;20983;-76
2023/04/04 05:36:51;;;;;;;7.40;5.57;;;0.20;99.90;;;;;;4896400;29;20559;-75
2023/04/04 05:39:21;;;;;;;8.90;6.30;;;0.20;99.90;;;;;;4896631;29;20505;-76
2023/04/04 05:42:10;;;;;;;7.83;4.93;;;0.20;99.90;;;;;;4896502;29;20487;-77
2023/04/04 05:44:43;;;;;;;9.77;6.20;;;0.20;99.90;;;;;;4896743;29;20857;-77
2023/04/04 05:47:12;;;;;;;8.33;5.70;;;0.20;99.90;;;;;;4896906;29;20461;-77
2023/04/04 05:49:44;;;;;;;9.30;4.90;;;0.30;99.90;;;;;;4897162;29;20456;-77
2023/04/04 05:52:12;;;;;;;8.03;5.33;;;0.30;99.90;;;;;;4897378;29;20485;-76
2023/04/04 05:54:42;;;;;;;7.57;5.30;;;0.30;99.90;;;;;;4899988;29;20502;-77
2023/04/04 05:57:15;;;;;;;5.60;3.23;;;0.40;99.90;;;;;;4900101;29;20476;-77
2023/04/04 05:59:50;;;;;;;6.00;4.00;;;0.40;99.90;;;;;;4900077;29;20471;-78
2023/04/04 06:02:19;;;;;;;8.27;4.20;;;0.50;99.90;;;;;;4900707;29;20481;-76
2023/04/04 06:04:52;;;;;;;6.07;3.30;;;0.50;99.90;;;;;;4900133;29;20990;-77
2023/04/04 06:07:30;;;;;;;5.87;4.00;;;0.60;99.90;;;;;;4900027;29;20502;-76
2023/04/04 06:09:59;;;;;;;7.30;4.83;;;0.60;99.90;;;;;;4899759;29;20551;-76
2023/04/04 06:12:28;;;;;;;11.93;5.33;;;0.70;99.90;;;;;;4900786;29;20483;-76
2023/04/04 06:14:56;;;;;;;6.53;4.77;;;0.80;99.90;;;;;;4899901;29;20463;-77
2023/04/04 06:17:25;;;;;;;7.40;4.00;;;0.90;99.90;;;;;;4899549;29;20890;-80
2023/04/04 06:19:54;;;;;;;10.10;6.30;;;1.10;99.90;;;;;;4899737;29;20964;-76
2023/04/04 06:22:22;;;;;;;7.40;4.87;;;1.30;99.90;;;;;;4899473;29;20482;-76
2023/04/04 06:24:53;;;;;;;7.90;4.43;;;1.60;99.90;;;;;;4900000;29;20446;-76
2023/04/04 06:27:25;;;;;;;6.20;4.40;;;1.80;99.90;;;;;;4899830;29;20450;-77
2023/04/04 06:29:53;;;;;;;7.50;3.67;;;2.10;99.90;;;;;;4899443;29;20532;-77
2023/04/04 06:32:22;;;;;;;6.80;3.83;;;2.40;99.90;;;;;;4899743;29;20481;-76
2023/04/04 06:34:51;;;;;;;8.13;4.83;;;2.70;99.90;;;;;;4899364;29;20453;-77
2023/04/04 06:37:28;;;;;;;5.20;4.00;;;2.90;99.90;;;;;;4899541;29;20500;-77
2023/04/04 06:40:08;;;;;;;4.90;3.90;;;3.20;99.90;;;;;;4902115;29;20457;-77
2023/04/04 06:42:37;;;;;;;5.50;3.93;;;3.40;99.90;;;;;;4902037;29;20481;-77
2023/04/04 06:45:08;;;;;;;6.97;3.97;;;3.60;99.90;;;;;;4899887;29;20544;-77
2023/04/04 06:47:36;;;;;;;6.60;4.37;;;3.80;99.90;;;;;;4899547;29;20449;-77
2023/04/04 06:50:14;;;;;;;5.57;4.20;;;4.00;99.90;;;;;;4900870;29;20488;-78
2023/04/04 06:52:50;;;;;;;10.90;5.40;;;4.20;99.90;;;;;;4901386;29;20489;-78
2023/04/04 06:55:19;;;;;;;8.17;4.00;;;4.30;99.90;;;;;;4900783;29;20933;-77
2023/04/04 06:57:48;;;;;;;8.60;4.77;;;5.20;99.90;;;;;;4900894;29;20480;-77
2023/04/04 07:00:17;;;;;;;5.90;4.00;;;4.70;99.90;;;;;;4899200;29;20460;-79
2023/04/04 07:02:45;;;;;;;6.60;4.17;;;4.80;99.90;;;;;;4899129;29;20481;-77
2023/04/04 07:05:16;;;;;;;7.10;4.60;;;5.00;99.90;;;;;;4899800;29;20510;-77
2023/04/04 07:07:45;;;;;;;7.90;4.00;;;5.10;99.90;;;;;;4899211;29;20884;-77
2023/04/04 07:10:13;;;;;;;8.73;4.63;;;5.30;99.90;;;;;;4899121;29;20957;-77
2023/04/04 07:12:42;;;;;;;7.27;4.10;;;5.30;99.90;;;;;;4899089;29;20487;-78
2023/04/04 07:15:12;;;;;;;6.50;4.20;;;5.40;99.90;;;;;;4900570;29;20445;-77
2023/04/04 07:17:40;;;;;;;7.20;3.50;;;5.40;99.90;;;;;;4900026;29;20584;-77
2023/04/04 07:20:10;;;;;;;10.30;4.30;;;5.40;99.90;;;;;;4898901;29;20493;-77
2023/04/04 07:22:39;;;;;;;7.50;3.30;;;5.40;99.90;;;;;;4898720;29;20576;-77
2023/04/04 07:25:08;;;;;;;6.30;3.70;;;5.40;99.90;;;;;;4898935;29;20551;-77
2023/04/04 07:27:36;;;;;;;5.33;4.10;;;5.50;99.90;;;;;;4898996;29;20457;-76
2023/04/04 07:30:05;;;;;;;6.90;4.20;;;5.50;99.90;;;;;;4899325;29;20498;-77
2023/04/04 07:32:36;;;;;;;5.63;3.83;;;5.60;99.90;;;;;;4899415;29;20477;-76
2023/04/04 07:35:06;;;;;;;6.63;4.33;;;5.70;99.90;;;;;;4898950;29;20457;-77
2023/04/04 07:37:36;;;;;;;7.40;4.70;;;5.70;99.90;;;;;;4899747;29;20958;-77
2023/04/04 07:40:07;;;;;;;6.80;4.00;;;5.80;99.90;;;;;;4898571;29;20454;-76
2023/04/04 07:42:36;;;;;;;6.00;3.93;;;5.80;99.90;;;;;;4900023;29;20457;-76
2023/04/04 07:45:05;;;;;;;10.20;4.30;;;5.90;99.90;;;;;;4898383;29;20453;-77
2023/04/04 07:47:36;;;;;;;6.70;3.80;;;6.00;99.90;;;;;;4898270;29;20461;-77
2023/04/04 07:50:05;;;;;;;9.17;4.07;;;6.20;99.90;;;;;;4898220;29;20806;-77
2023/04/04 07:52:33;;;;;;;8.53;4.30;;;6.30;99.90;;;;;;4898269;29;20484;-77
2023/04/04 07:55:02;;;;;;;7.07;5.27;;;6.50;99.90;;;;;;4898176;29;20513;-77
2023/04/04 07:57:30;;;;;;;6.60;4.60;;;6.60;99.90;;;;;;4900152;29;20489;-77
2023/04/04 07:59:59;;;;;;;7.23;4.33;;;6.70;99.90;;;;;;4899366;29;20448;-77
2023/04/04 08:02:27;;;;;;;6.70;4.17;;;6.80;99.90;;;;;;4898145;29;20475;-77
2023/04/04 08:04:57;;;;;;;7.90;4.40;;;7.00;99.90;;;;;;4898147;29;20886;-76
2023/04/04 08:07:25;;;;;;;6.50;3.80;;;7.10;99.90;;;;;;4898000;29;20455;-76
2023/04/04 08:09:56;;;;;;;7.00;3.97;;;7.20;99.90;;;;;;4899199;29;20429;-76
2023/04/04 08:12:24;;;;;;;7.87;3.93;;;7.30;99.90;;;;;;4897715;29;21003;-76
2023/04/04 08:14:52;;;;;;;6.63;4.23;;;7.40;99.90;;;;;;4897739;29;20931;-77
2023/04/04 08:17:20;;;;;;;5.70;3.97;;;7.40;99.90;;;;;;4899241;29;20476;-76
2023/04/04 08:19:49;;;;;;;6.10;4.07;;;7.50;99.90;;;;;;4897943;29;20460;-77
2023/04/04 08:22:18;;;;;;;6.30;3.83;;;7.60;99.80;;;;;;4897534;29;20475;-76
2023/04/04 08:24:46;;;;;;;6.60;4.53;;;7.70;99.80;;;;;;4899082;29;20445;-77
2023/04/04 08:27:14;;;;;;;6.67;3.90;;;7.90;99.70;;;;;;4897503;29;20455;-76
2023/04/04 08:29:44;;;;;;;5.67;3.90;;;7.90;99.50;;;;;;4897546;29;20464;-76
2023/04/04 08:32:12;;;;;;;8.23;3.87;;;8.00;99.50;;;;;;4898770;29;20464;-76
2023/04/04 08:34:41;;;;;;;7.23;3.70;;;8.10;99.40;;;;;;4897402;29;20460;-76
2023/04/04 08:37:09;;;;;;;8.70;5.40;;;8.20;99.40;;;;;;4897467;29;20576;-76
2023/04/04 08:39:39;;;;;;;7.73;4.33;;;8.20;99.20;;;;;;4897275;29;20457;-76
2023/04/04 08:42:08;;;;;;;8.33;4.73;;;8.30;99.10;;;;;;4897331;29;20477;-76
2023/04/04 08:44:39;;;;;;;7.90;5.93;;;8.50;99.00;;;;;;4897367;29;20551;-76
2023/04/04 08:47:09;;;;;;;10.50;6.40;;;8.40;98.30;;;;;;4897376;29;20450;-76
2023/04/04 08:49:41;;;;;;;8.93;5.80;;;8.40;98.30;;;;;;4897226;29;20449;-76
2023/04/04 08:52:11;;;;;;;9.63;5.93;;;8.40;98.60;;;;;;4897158;29;20511;-76
2023/04/04 08:54:43;;;;;;;8.30;5.70;;;8.50;98.70;;;;;;4898973;29;20853;-76
2023/04/04 08:57:11;;;;;;;8.50;5.60;;;8.60;98.80;;;;;;4898737;29;20433;-76
2023/04/04 08:59:39;;;;;;;11.17;5.33;;;8.70;98.90;;;;;;4897296;29;20990;-76
2023/04/04 09:02:17;;;;;;;8.03;6.50;;;8.90;98.80;;;;;;4897126;29;20478;-76
2023/04/04 09:04:47;;;;;;;9.80;6.50;;;9.00;98.40;;;;;;4897419;29;20445;-77
2023/04/04 09:07:33;;;;;;;8.33;5.90;;;9.00;98.20;;;;;;4898829;29;20421;-76
2023/04/04 09:10:09;;;;;;;8.47;5.60;;;8.90;97.90;;;;;;4898363;29;20525;-76
2023/04/04 09:12:39;;;;;;;6.40;5.07;;;8.90;97.80;;;;;;4898287;29;20472;-76
2023/04/04 09:15:08;;;;;;;7.40;5.17;;;8.90;97.90;;;;;;4897122;29;20540;-77
2023/04/04 09:17:37;;;;;;;7.23;5.50;;;8.90;97.90;;;;;;4898036;29;20472;-77
2023/04/04 09:20:33;;;;;;;7.60;5.60;;;9.00;98.00;;;;;;4898499;29;20441;-77
2023/04/04 09:23:02;;;;;;;7.50;4.93;;;9.10;97.70;;;;;;4897014;29;21064;-76
2023/04/04 09:25:32;;;;;;;7.37;5.20;;;9.10;97.80;;;;;;4898003;29;20445;-77
2023/04/04 09:28:01;;;;;;;7.23;4.70;;;9.10;97.60;;;;;;4900647;29;20532;-76
2023/04/04 09:30:30;;;;;;;6.10;4.50;;;9.00;97.40;;;;;;4900818;29;20449;-76
2023/04/04 09:33:01;;;;;;;6.47;4.27;;;9.10;97.40;;;;;;4900613;29;20461;-76
2023/04/04 09:35:29;;;;;;;8.20;4.33;;;9.10;97.20;;;;;;4900545;29;20452;-76
2023/04/04 09:37:57;;;;;;;8.23;3.90;;;9.10;97.10;;;;;;4900520;29;20477;-76
2023/04/04 09:40:27;;;;;;;6.27;4.07;;;9.10;96.80;;;;;;4900432;29;20536;-76
2023/04/04 09:43:00;;;;;;;6.30;3.60;;;9.00;96.80;;;;;;4900512;29;20460;-76
2023/04/04 09:45:30;;;;;;;7.40;3.97;;;9.00;96.90;;;;;;4900563;29;20513;-76
2023/04/04 09:48:11;;;;;;;6.20;3.40;;;9.00;97.00;;;;;;4901981;29;20840;-76
2023/04/04 09:50:46;;;;;;;7.10;3.53;;;9.00;96.90;;;;;;4901754;29;20438;-76
2023/04/04 09:53:17;;;;;;;5.97;3.90;;;9.00;96.60;;;;;;4901564;29;20484;-76
2023/04/04 09:55:50;;;;;;;5.50;3.67;;;9.00;96.70;;;;;;4900392;29;20498;-77
2023/04/04 09:58:25;;;;;;;8.77;3.97;;;9.00;96.60;;;;;;4900709;29;20469;-76
2023/04/04 10:00:55;;;;;;;6.73;3.47;;;9.00;96.60;;;;;;4900285;29;20469;-76
2023/04/04 10:03:25;;;;;;;6.13;3.43;;;9.10;96.70;;;;;;4900369;29;20459;-76
2023/04/04 10:05:59;;;;;;;6.20;3.07;;;9.20;96.70;;;;;;4901492;29;20437;-77
2023/04/04 10:08:29;;;;;;;5.70;3.33;;;9.30;96.70;;;;;;4900269;29;20932;-76
2023/04/04 10:11:00;;;;;;;5.40;3.20;;;9.40;96.30;;;;;;4901605;29;20465;-77
2023/04/04 10:13:35;;;;;;;6.37;3.70;;;9.40;96.00;;;;;;4899946;29;20452;-77
2023/04/04 10:16:04;;;;;;;5.23;2.80;;;9.30;95.90;;;;;;4901457;29;20422;-76
2023/04/04 10:18:34;;;;;;;6.63;3.60;;;9.30;95.70;;;;;;4899727;29;21064;-75
2023/04/04 10:21:03;;;;;;;4.90;3.40;;;9.20;95.60;;;;;;4900782;29;20567;-76
2023/04/04 10:23:46;;;;;;;5.40;3.20;;;9.20;95.40;;;;;;4901237;29;20436;-76
2023/04/04 10:26:14;;;;;;;8.37;3.63;;;9.10;95.10;;;;;;4899564;29;20449;-76
2023/04/04 10:28:44;;;;;;;6.07;3.40;;;9.10;95.10;;;;;;4899680;29;20512;-77
2023/04/04 10:31:23;;;;;;;8.10;3.63;;;9.10;94.90;;;;;;4899540;29;20476;-77
2023/04/04 10:34:04;;;;;;;5.73;3.17;;;9.10;94.70;;;;;;4900207;29;20516;-76
2023/04/04 10:36:43;;;;;;;5.67;3.40;;;9.00;94.30;;;;;;4899466;29;20456;-76
2023/04/04 10:39:15;;;;;;;5.77;3.33;;;9.00;94.40;;;;;;4898148;29;20554;-76
2023/04/04 10:41:44;;;;;;;5.73;3.50;;;9.00;94.40;;;;;;4899405;29;20508;-76
2023/04/04 10:44:32;;;;;;;8.13;3.20;;;9.00;94.70;;;;;;4899421;29;20524;-74
2023/04/04 10:47:09;;;;;;;5.60;3.47;;;9.00;94.40;;;;;;4899520;29;20889;-76
2023/04/04 10:49:40;;;;;;;7.53;3.77;;;9.00;94.40;;;;;;4899286;29;20868;-76
2023/04/04 10:52:10;;;;;;;7.10;3.70;;;9.10;94.50;;;;;;4899355;29;20480;-74
2023/04/04 10:54:38;;;;;;;4.90;3.10;;;9.10;94.50;;;;;;4899145;29;20537;-77
2023/04/04 10:57:07;;;;;;;5.33;3.10;;;9.20;94.30;;;;;;4900785;29;20446;-77
2023/04/04 10:59:56;;;;;;;5.57;3.70;;;9.20;94.30;;;;;;4898975;29;20996;-77
2023/04/04 11:02:50;;;;;;;7.00;3.50;;;9.20;94.20;;;;;;4898958;29;20477;-76
2023/04/04 11:05:23;;;;;;;4.87;2.80;;;9.20;94.30;;;;;;4899075;29;20456;-77
2023/04/04 11:08:00;;;;;;;6.10;3.17;;;9.20;94.20;;;;;;4899113;29;20453;-77
2023/04/04 11:10:34;;;;;;;4.43;3.07;;;9.20;94.10;;;;;;4898996;29;20528;-77
2023/04/04 11:13:12;;;;;;;6.03;3.17;;;9.20;93.90;;;;;;4900443;29;20429;-77
2023/04/04 11:15:56;;;;;;;6.70;3.27;;;9.10;93.90;;;;;;4900113;29;20792;-78
2023/04/04 11:18:46;;;;;;;5.10;3.23;;;9.10;93.50;;;;;;4898787;29;20457;-77
2023/04/04 11:21:15;;;;;;;5.20;3.00;;;9.10;93.60;;;;;;4898863;29;21004;-77
2023/04/04 11:24:17;;;;;;;4.87;3.27;;;9.00;93.50;;;;;;4898687;29;20513;-77
2023/04/04 11:26:46;;;;;;;5.90;3.43;;;9.00;93.30;;;;;;4898822;29;20940;-78
2023/04/04 11:29:22;;;;;;;6.50;3.50;;;9.00;93.40;;;;;;4898587;29;21053;-78
2023/04/04 11:31:52;;;;;;;6.23;3.77;;;9.00;93.40;;;;;;4899920;29;20467;-77
2023/04/04 11:34:31;;;;;;;5.37;3.10;;;9.00;93.40;;;;;;4899688;29;20445;-77
2023/04/04 11:37:02;;;;;;;5.87;3.23;;;9.00;93.30;;;;;;4898361;29;20911;-77
2023/04/04 11:39:32;;;;;;;7.13;4.00;;;9.00;93.60;;;;;;4898374;29;20476;-78
2023/04/04 11:42:03;;;;;;;5.20;3.50;;;9.10;93.10;;;;;;4898392;29;20569;-78
2023/04/04 11:44:33;;;;;;;6.30;3.73;;;9.00;93.00;;;;;;4898312;29;20520;-77
2023/04/04 11:47:09;;;;;;;5.10;3.20;;;9.10;93.00;;;;;;4898238;29;20454;-76
2023/04/04 11:49:39;;;;;;;5.40;3.40;;;9.00;92.90;;;;;;4897870;29;20497;-76
2023/04/04 11:52:09;;;;;;;6.37;3.53;;;9.10;93.10;;;;;;4898009;29;20487;-77
2023/04/04 11:54:38;;;;;;;7.13;5.50;;;9.10;93.20;;;;;;4898153;29;20457;-76
2023/04/04 11:57:07;;;;;;;8.27;5.50;;;9.10;93.20;;;;;;4898150;29;20495;-76
2023/04/04 11:59:40;;;;;;;5.50;3.87;;;9.20;92.90;;;;;;4898021;29;20473;-77
2023/04/04 12:02:11;;;;;;;6.87;3.63;;;9.10;92.90;;;;;;4899245;29;20475;-77
2023/04/04 12:04:43;;;;;;;7.63;3.23;;;9.20;93.10;;;;;;4897983;29;20493;-77
2023/04/04 12:07:12;;;;;;;8.00;3.67;;;9.20;93.20;;;;;;4898028;29;20457;-77
2023/04/04 12:09:41;;;;;;;6.07;3.10;;;9.30;93.20;;;;;;4898825;29;20450;-77
2023/04/04 12:12:13;;;;;;;5.50;3.67;;;9.30;93.10;;;;;;4899348;29;20461;-77
2023/04/04 12:14:41;;;;;;;5.20;3.30;;;9.30;93.10;;;;;;4899093;29;20434;-77
2023/04/04 12:17:11;;;;;;;5.10;3.70;;;9.30;93.20;;;;;;4897846;29;20513;-77
2023/04/04 12:19:40;;;;;;;6.57;3.97;;;9.40;93.30;;;;;;4898975;29;20500;-77
2023/04/04 12:22:09;;;;;;;6.40;3.53;;;9.40;93.50;;;;;;4900774;29;20505;-77
2023/04/04 12:24:37;;;;;;;6.73;3.90;;;9.50;93.20;;;;;;4901005;29;20450;-77
2023/04/04 12:27:06;;;;;;;5.00;3.67;;;9.50;93.10;;;;;;4901138;29;20479;-77
2023/04/04 12:29:36;;;;;;;7.03;3.73;;;9.50;93.10;;;;;;4899971;29;20460;-77
2023/04/04 12:32:08;;;;;;;7.00;4.90;;;9.50;93.10;;;;;;4900789;29;20540;-77
2023/04/04 12:34:43;;;;;;;5.90;4.50;;;9.60;93.20;;;;;;4900681;29;20445;-76
2023/04/04 12:37:18;;;;;;;6.37;4.70;;;9.60;93.00;;;;;;4900471;29;20445;-76
2023/04/04 12:39:48;;;;;;;7.40;4.17;;;9.60;93.00;;;;;;4900533;29;20473;-76
2023/04/04 12:42:21;;;;;;;9.80;4.33;;;9.60;93.00;;;;;;4900184;29;20453;-76
2023/04/04 12:44:51;;;;;;;5.10;3.60;;;9.70;93.10;;;;;;4897416;29;20969;-76
2023/04/04 12:47:21;;;;;;;6.83;4.47;;;9.70;93.00;;;;;;4897450;29;20457;-76
2023/04/04 12:49:53;;;;;;;5.17;3.80;;;9.70;92.80;;;;;;4897109;29;20563;-76
2023/04/04 12:52:26;;;;;;;9.30;4.73;;;9.70;92.80;;;;;;4897100;29;20468;-76
2023/04/04 12:54:58;;;;;;;8.43;4.87;;;9.70;92.70;;;;;;4897407;29;20968;-77
2023/04/04 12:57:36;;;;;;;12.33;4.87;;;9.70;92.50;;;;;;4898503;29;20425;-76
2023/04/04 13:00:07;;;;;;;6.37;4.37;;;9.70;92.50;;;;;;4896952;29;20955;-76
2023/04/04 13:02:37;;;;;;;8.90;4.33;;;9.60;92.20;;;;;;4896413;29;20509;-76
2023/04/04 13:05:10;;;;;;;8.77;4.40;;;9.60;92.10;;;;;;4897317;29;20468;-77
2023/04/04 13:07:42;;;;;;;8.57;5.10;;;9.60;92.10;;;;;;4897031;29;20433;-76
2023/04/04 13:10:13;;;;;;;6.47;4.33;;;9.60;91.90;;;;;;4896925;29;20819;-76
2023/04/04 13:12:59;;;;;;;6.97;3.87;;;9.60;91.90;;;;;;4896831;29;20477;-76
2023/04/04 13:15:49;;;;;;;8.40;4.60;;;9.60;91.60;;;;;;4896917;29;20457;-76